createdAt,value
2022-11-13T00:00:55.483Z,8.2
2022-11-13T00:03:57.430Z,8.8
2022-11-13T00:06:59.756Z,9
2022-11-13T00:10:01.376Z,8.2
2022-11-13T00:13:03.338Z,7.9
2022-11-13T00:16:05.302Z,7.2
2022-11-13T00:19:07.267Z,7.6
2022-11-13T00:22:09.250Z,7.4
2022-11-13T00:25:11.213Z,7
2022-11-13T00:28:13.168Z,7.1
2022-11-13T00:31:15.149Z,7.3
2022-11-13T00:34:41.409Z,7.6
2022-11-13T00:37:19.054Z,7
2022-11-13T00:40:21.021Z,7.3
2022-11-13T00:43:22.976Z,7.1
2022-11-13T00:46:24.948Z,6.7
2022-11-13T00:49:26.898Z,6.6
2022-11-13T00:52:28.861Z,8
2022-11-13T00:55:30.825Z,6.6
2022-11-13T00:58:32.784Z,6.7
2022-11-13T01:01:34.902Z,6.5
2022-11-13T01:04:36.805Z,6.7
2022-11-13T01:07:38.773Z,6.9
2022-11-13T01:10:40.742Z,6.9
2022-11-13T01:13:42.710Z,7.7
2022-11-13T01:16:44.696Z,7.2
2022-11-13T01:19:46.646Z,8.2
2022-11-13T01:22:48.606Z,7.9
2022-11-13T01:25:50.571Z,7.7
2022-11-13T01:28:52.543Z,7.3
2022-11-13T01:31:54.513Z,6.9
2022-11-13T01:34:56.481Z,7.1
2022-11-13T01:37:58.433Z,6.4
2022-11-13T01:41:00.389Z,7.4
2022-11-13T01:44:02.356Z,6.8
2022-11-13T01:47:04.325Z,6.1
2022-11-13T01:50:06.290Z,6.7
2022-11-13T01:53:08.250Z,7.2
2022-11-13T01:56:10.229Z,6.7
2022-11-13T01:59:12.195Z,6.3
2022-11-13T02:02:14.157Z,5
2022-11-13T02:05:16.106Z,5.9
2022-11-13T02:08:18.077Z,6.1
2022-11-13T02:11:20.047Z,6.3
2022-11-13T02:14:22.009Z,5.8
2022-11-13T02:17:24.040Z,5.9
2022-11-13T02:20:25.921Z,5.4
2022-11-13T02:23:27.914Z,5.7
2022-11-13T02:26:29.882Z,5.6
2022-11-13T02:29:31.850Z,5.4
2022-11-13T02:32:33.798Z,5.3
2022-11-13T02:35:35.744Z,5.1
2022-11-13T02:38:37.699Z,4.9
2022-11-13T02:41:39.680Z,5.9
2022-11-13T02:44:41.623Z,5.5
2022-11-13T02:47:43.581Z,6.1
2022-11-13T02:50:45.559Z,5.5
2022-11-13T02:53:47.536Z,5.5
2022-11-13T02:56:49.496Z,5.4
2022-11-13T02:59:51.454Z,6
2022-11-13T03:02:53.413Z,5.9
2022-11-13T03:05:55.391Z,6.1
2022-11-13T03:08:57.344Z,6.3
2022-11-13T03:11:59.315Z,5.8
2022-11-13T03:15:01.276Z,5.5
2022-11-13T03:18:03.243Z,5.7
2022-11-13T03:21:05.214Z,5
2022-11-13T03:24:07.177Z,5.5
2022-11-13T03:27:09.156Z,5.4
2022-11-13T03:30:11.099Z,6.4
2022-11-13T03:33:13.085Z,6.3
2022-11-13T03:36:15.040Z,6.3
2022-11-13T03:39:17.009Z,6.6
2022-11-13T03:42:18.978Z,6.7
2022-11-13T03:45:20.944Z,6.2
2022-11-13T03:48:22.916Z,6
2022-11-13T03:51:24.873Z,5.4
2022-11-13T03:54:26.854Z,5.6
2022-11-13T03:57:28.812Z,5.8
2022-11-13T04:00:30.775Z,6.1
2022-11-13T04:03:32.800Z,6.2
2022-11-13T04:06:34.708Z,5.2
2022-11-13T04:09:36.666Z,5.4
2022-11-13T04:12:38.632Z,6.1
2022-11-13T04:15:40.620Z,5
2022-11-13T04:18:42.571Z,5.1
2022-11-13T04:21:44.545Z,5.6
2022-11-13T04:24:46.504Z,5.4
2022-11-13T04:27:48.486Z,5.5
2022-11-13T04:30:50.445Z,5.2
2022-11-13T04:33:52.423Z,4.8
2022-11-13T04:36:54.364Z,4.7
2022-11-13T04:39:56.361Z,5.2
2022-11-13T04:42:58.300Z,5.1
2022-11-13T04:46:00.277Z,4.3
2022-11-13T04:49:02.244Z,4.7
2022-11-13T04:52:04.215Z,4.7
2022-11-13T04:55:06.161Z,5
2022-11-13T04:58:08.138Z,5.1
2022-11-13T05:01:10.144Z,5.1
2022-11-13T05:04:12.096Z,4.8
2022-11-13T05:07:14.155Z,4.5
2022-11-13T05:10:15.999Z,5.2
2022-11-13T05:13:17.983Z,4.9
2022-11-13T05:16:19.956Z,5.2
2022-11-13T05:19:21.922Z,4.4
2022-11-13T05:22:23.986Z,4.9
2022-11-13T05:25:25.841Z,4.1
2022-11-13T05:28:27.934Z,5.1
2022-11-13T05:31:29.776Z,4.4
2022-11-13T05:34:31.734Z,4.8
2022-11-13T05:37:33.697Z,4.8
2022-11-13T05:40:35.750Z,4.8
2022-11-13T05:43:37.639Z,4.8
2022-11-13T05:46:39.697Z,4.7
2022-11-13T05:49:41.573Z,4.9
2022-11-13T05:52:43.564Z,5.4
2022-11-13T05:55:45.503Z,5
2022-11-13T05:58:47.468Z,4.8
2022-11-13T06:01:49.465Z,4.5
2022-11-13T06:04:52.889Z,4.3
2022-11-13T06:07:53.390Z,5
2022-11-13T06:10:55.356Z,5
2022-11-13T06:13:57.336Z,4.9
2022-11-13T06:16:59.276Z,5.4
2022-11-13T06:20:01.288Z,4.9
2022-11-13T06:23:03.257Z,4.6
2022-11-13T06:26:05.216Z,5.1
2022-11-13T06:29:07.185Z,5.1
2022-11-13T06:32:09.172Z,4.4
2022-11-13T06:35:11.127Z,4.9
2022-11-13T06:38:13.092Z,4.4
2022-11-13T06:41:15.055Z,4.8
2022-11-13T06:44:17.007Z,5
2022-11-13T06:47:18.971Z,4.8
2022-11-13T06:50:20.980Z,4.8
2022-11-13T06:53:22.894Z,5.1
2022-11-13T06:56:24.858Z,4.7
2022-11-13T06:59:26.820Z,4.5
2022-11-13T07:02:28.797Z,4.6
2022-11-13T07:05:30.766Z,4.7
2022-11-13T07:08:32.727Z,4.7
2022-11-13T07:11:34.682Z,4.2
2022-11-13T07:14:36.652Z,4.7
2022-11-13T07:17:38.657Z,4.5
2022-11-13T07:20:40.616Z,4
2022-11-13T07:23:42.551Z,4.8
2022-11-13T07:26:44.549Z,5
2022-11-13T07:29:46.473Z,4.4
2022-11-13T07:32:48.561Z,5.7
2022-11-13T07:35:50.423Z,5.7
2022-11-13T07:38:54.602Z,4.7
2022-11-13T07:41:54.499Z,5.5
2022-11-13T07:44:56.348Z,5.7
2022-11-13T07:47:58.300Z,5.5
2022-11-13T07:51:00.267Z,5.1
2022-11-13T07:54:02.218Z,4.8
2022-11-13T07:57:04.192Z,4.9
2022-11-13T08:00:06.211Z,5.6
2022-11-13T08:03:08.138Z,5.1
2022-11-13T08:06:10.110Z,5.3
2022-11-13T08:09:12.047Z,4.5
2022-11-13T08:12:13.992Z,4.6
2022-11-13T08:15:15.976Z,4.4
2022-11-13T08:18:17.914Z,4.7
2022-11-13T08:21:19.855Z,4.7
2022-11-13T08:24:21.818Z,4.4
2022-11-13T08:27:26.771Z,4.6
2022-11-13T08:30:28.755Z,4.6
2022-11-13T08:33:30.692Z,4.6
2022-11-13T08:36:32.651Z,4.9
2022-11-13T08:39:34.609Z,5.2
2022-11-13T08:42:36.552Z,4.9
2022-11-13T08:45:38.506Z,4.6
2022-11-13T08:48:40.450Z,4.3
2022-11-13T08:51:42.420Z,4.5
2022-11-13T08:54:44.395Z,4.8
2022-11-13T08:57:46.345Z,5.1
2022-11-13T09:00:48.382Z,4.4
2022-11-13T09:03:50.318Z,4.3
2022-11-13T09:06:52.301Z,5.1
2022-11-13T09:09:54.373Z,5
2022-11-13T09:12:56.176Z,4.6
2022-11-13T09:15:58.136Z,4.6
2022-11-13T09:19:00.103Z,4.3
2022-11-13T09:22:02.064Z,4.8
2022-11-13T09:25:04.072Z,5.1
2022-11-13T09:28:06.050Z,4.6
2022-11-13T09:31:07.976Z,4.5
2022-11-13T09:34:09.962Z,4.6
2022-11-13T09:37:11.919Z,5
2022-11-13T09:40:13.923Z,5
2022-11-13T09:43:15.875Z,4.9
2022-11-13T09:46:17.845Z,4.7
2022-11-13T09:49:19.819Z,4.4
2022-11-13T09:52:21.785Z,4.9
2022-11-13T09:55:23.759Z,5.2
2022-11-13T09:58:25.788Z,5.2
2022-11-13T10:01:27.790Z,4.7
2022-11-13T10:04:29.685Z,4.7
2022-11-13T10:07:31.635Z,4.6
2022-11-13T10:10:33.571Z,4.5
2022-11-13T10:13:35.553Z,4.8
2022-11-13T10:16:37.515Z,4.3
2022-11-13T10:19:39.474Z,4
2022-11-13T10:22:41.450Z,3.9
2022-11-13T10:25:43.419Z,4.5
2022-11-13T10:28:50.852Z,4.5
2022-11-13T10:31:47.341Z,4.5
2022-11-13T10:34:49.306Z,4
2022-11-13T10:37:51.298Z,4.4
2022-11-13T10:40:53.241Z,4.8
2022-11-13T10:43:55.202Z,4.5
2022-11-13T10:46:57.180Z,4.4
2022-11-13T10:49:59.138Z,4.4
2022-11-13T10:53:03.993Z,3.9
2022-11-13T10:56:05.966Z,3.9
2022-11-13T10:59:07.906Z,3.9
2022-11-13T11:02:09.879Z,4
2022-11-13T11:05:11.839Z,4.5
2022-11-13T11:08:13.853Z,3.9
2022-11-13T11:11:15.779Z,3.7
2022-11-13T11:14:17.738Z,3.9
2022-11-13T11:17:19.711Z,3.1
2022-11-13T11:20:21.691Z,3.8
2022-11-13T11:23:23.650Z,4
2022-11-13T11:26:25.615Z,4.2
2022-11-13T11:29:27.581Z,4
2022-11-13T11:32:29.611Z,4.5
2022-11-13T11:35:31.556Z,4.4
2022-11-13T11:38:33.493Z,4.2
2022-11-13T11:41:35.454Z,3.7
2022-11-13T11:44:37.405Z,3.7
2022-11-13T11:47:39.382Z,5.2
2022-11-13T11:50:41.347Z,4
2022-11-13T11:53:43.302Z,3.3
2022-11-13T11:56:45.266Z,3.9
2022-11-13T11:59:47.225Z,3.2
2022-11-13T12:02:49.202Z,3.9
2022-11-13T12:05:51.186Z,3.5
2022-11-13T12:08:53.137Z,3.3
2022-11-13T12:11:55.128Z,2.8
2022-11-13T12:14:57.064Z,3
2022-11-13T12:17:59.063Z,3.9
2022-11-13T12:21:01.026Z,4
2022-11-13T12:24:02.982Z,3.6
2022-11-13T12:27:04.940Z,3.7
2022-11-13T12:30:06.910Z,3.1
2022-11-13T12:33:08.877Z,3.6
2022-11-13T12:36:10.907Z,3.3
2022-11-13T12:39:12.875Z,3.7
2022-11-13T12:42:14.845Z,3.4
2022-11-13T12:45:16.818Z,3.6
2022-11-13T12:48:18.790Z,3.8
2022-11-13T12:51:20.739Z,3.7
2022-11-13T12:54:22.707Z,3.5
2022-11-13T12:57:28.845Z,3.3
2022-11-13T13:00:26.664Z,3.4
2022-11-13T13:03:28.603Z,3.6
2022-11-13T13:06:30.568Z,3.6
2022-11-13T13:09:32.541Z,3.4
2022-11-13T13:12:34.490Z,3.7
2022-11-13T13:15:36.478Z,3.5
2022-11-13T13:18:38.427Z,3.8
2022-11-13T13:21:40.402Z,3.7
2022-11-13T13:24:42.368Z,3.8
2022-11-13T13:27:44.333Z,3.6
2022-11-13T13:30:46.292Z,3.2
2022-11-13T13:33:48.240Z,3.6
2022-11-13T13:36:50.232Z,3.8
2022-11-13T13:39:52.197Z,3.6
2022-11-13T13:42:54.186Z,3.1
2022-11-13T13:45:56.144Z,3.1
2022-11-13T13:48:58.131Z,3
2022-11-13T13:52:00.072Z,3
2022-11-13T13:55:02.036Z,3
2022-11-13T13:58:05.646Z,2.2
2022-11-13T14:01:18.108Z,2.9
2022-11-13T14:04:07.915Z,3
2022-11-13T14:07:09.982Z,2.5
2022-11-13T14:10:11.851Z,3.1
2022-11-13T14:13:13.807Z,2.9
2022-11-13T14:16:15.765Z,3.1
2022-11-13T14:19:17.721Z,2.8
2022-11-13T14:22:19.670Z,3.6
2022-11-13T14:25:21.673Z,3.4
2022-11-13T14:28:23.604Z,3.7
2022-11-13T14:31:25.579Z,3.6
2022-11-13T14:34:27.529Z,3.7
2022-11-13T14:37:29.502Z,3.5
2022-11-13T14:40:31.479Z,3.6
2022-11-13T14:43:33.427Z,3.4
2022-11-13T14:46:35.388Z,2.9
2022-11-13T14:49:37.364Z,3
2022-11-13T14:52:39.323Z,3
2022-11-13T14:55:41.296Z,3
2022-11-13T14:58:43.263Z,2.8
2022-11-13T15:01:45.234Z,3.2
2022-11-13T15:04:47.213Z,3.7
2022-11-13T15:07:49.159Z,3.2
2022-11-13T15:10:51.150Z,3.1
2022-11-13T15:13:53.087Z,3.6
2022-11-13T15:16:55.078Z,3.2
2022-11-13T15:19:57.040Z,4.1
2022-11-13T15:22:59.005Z,3.4
2022-11-13T15:26:00.967Z,3.5
2022-11-13T15:29:02.936Z,3.9
2022-11-13T15:32:04.899Z,3.6
2022-11-13T15:35:06.867Z,3.3
2022-11-13T15:38:08.834Z,3.4
2022-11-13T15:41:10.795Z,4
2022-11-13T15:44:12.765Z,4.4
2022-11-13T15:47:14.740Z,3.8
2022-11-13T15:50:16.895Z,4.3
2022-11-13T15:53:18.659Z,3.9
2022-11-13T15:56:20.605Z,3.7
2022-11-13T15:59:22.564Z,4.5
2022-11-13T16:02:24.647Z,4.2
2022-11-13T16:05:26.497Z,4.5
2022-11-13T16:08:28.462Z,3.6
2022-11-13T16:11:30.438Z,3.2
2022-11-13T16:14:32.399Z,3.5
2022-11-13T16:17:34.373Z,3.6
2022-11-13T16:20:36.346Z,4.4
2022-11-13T16:23:38.295Z,4
2022-11-13T16:26:40.276Z,3.9
2022-11-13T16:29:42.217Z,3.7
2022-11-13T16:32:44.184Z,4.4
2022-11-13T16:35:46.134Z,3.8
2022-11-13T16:38:48.099Z,4.4
2022-11-13T16:41:50.070Z,4.6
2022-11-13T16:44:52.027Z,5.4
2022-11-13T16:47:54.002Z,4.4
2022-11-13T16:50:55.935Z,4.4
2022-11-13T16:53:57.910Z,5
2022-11-13T16:56:59.866Z,4.7
2022-11-13T17:00:01.819Z,4.9
2022-11-13T17:03:03.781Z,4.8
2022-11-13T17:06:05.725Z,5.2
2022-11-13T17:09:07.700Z,4.4
2022-11-13T17:12:09.677Z,4.9
2022-11-13T17:15:11.636Z,5.4
2022-11-13T17:18:13.646Z,4.9
2022-11-13T17:21:15.564Z,5.2
2022-11-13T17:24:17.534Z,4.6
2022-11-13T17:27:19.507Z,5.5
2022-11-13T17:30:21.462Z,5.4
2022-11-13T17:33:23.443Z,5.2
2022-11-13T17:36:25.383Z,5.3
2022-11-13T17:39:27.348Z,5.5
2022-11-13T17:42:29.313Z,5.1
2022-11-13T17:45:31.273Z,6.2
2022-11-13T17:48:33.247Z,5.6
2022-11-13T17:51:35.202Z,5.5
2022-11-13T17:54:37.166Z,5.3
2022-11-13T17:57:39.162Z,6.3
2022-11-13T18:00:41.104Z,6.2
2022-11-13T18:03:43.187Z,6.5
2022-11-13T18:06:45.114Z,6
2022-11-13T18:09:47.006Z,6.9
2022-11-13T18:12:48.959Z,6.3
2022-11-13T18:15:50.935Z,6.9
2022-11-13T18:18:52.889Z,7.1
2022-11-13T18:21:55.099Z,6.4
2022-11-13T18:24:56.825Z,6.3
2022-11-13T18:27:58.812Z,6.3
2022-11-13T18:31:00.746Z,6.9
2022-11-13T18:34:02.718Z,6.7
2022-11-13T18:37:04.685Z,6.6
2022-11-13T18:40:06.633Z,5.9
2022-11-13T18:43:08.603Z,7.1
2022-11-13T18:46:10.566Z,6.3
2022-11-13T18:49:12.534Z,6.4
2022-11-13T18:52:14.497Z,6.6
2022-11-13T18:55:16.443Z,6.1
2022-11-13T18:58:18.407Z,7.5
2022-11-13T19:01:22.435Z,6.4
2022-11-13T19:04:23.822Z,7.2
2022-11-13T19:07:24.374Z,6.5
2022-11-13T19:10:26.278Z,7.2
2022-11-13T19:13:28.266Z,7.4
2022-11-13T19:16:30.200Z,7.4
2022-11-13T19:19:32.189Z,7.8
2022-11-13T19:22:34.176Z,7.1
2022-11-13T19:25:36.123Z,6.4
2022-11-13T19:28:38.086Z,6.9
2022-11-13T19:31:40.054Z,7.7
2022-11-13T19:34:46.185Z,7.7
2022-11-13T19:37:43.996Z,8.3
2022-11-13T19:40:45.959Z,8.8
2022-11-13T19:43:47.937Z,8.2
2022-11-13T19:46:49.878Z,8.9
2022-11-13T19:49:51.837Z,7.6
2022-11-13T19:52:53.817Z,8.2
2022-11-13T19:55:55.781Z,11
2022-11-13T19:58:57.756Z,11.7
2022-11-13T20:01:59.752Z,9.9
2022-11-13T20:05:01.695Z,9
2022-11-13T20:08:03.648Z,8.4
2022-11-13T20:11:05.621Z,7.5
2022-11-13T20:14:07.589Z,9.2
2022-11-13T20:17:09.556Z,7.6
2022-11-13T20:20:11.520Z,7.7
2022-11-13T20:23:13.467Z,7
2022-11-13T20:26:15.434Z,7.8
2022-11-13T20:29:17.407Z,8.7
2022-11-13T20:32:19.385Z,7.5
2022-11-13T20:35:21.377Z,8
2022-11-13T20:38:23.288Z,8.7
2022-11-13T20:41:25.259Z,8.8
2022-11-13T20:44:27.237Z,8.8
2022-11-13T20:47:29.170Z,8.5
2022-11-13T20:50:31.151Z,7
2022-11-13T20:53:33.107Z,7.8
2022-11-13T20:56:35.066Z,8.2
2022-11-13T20:59:37.041Z,7.1
2022-11-13T21:02:38.985Z,8
2022-11-13T21:05:40.926Z,8.2
2022-11-13T21:08:42.878Z,8.7
2022-11-13T21:11:44.850Z,9.6
2022-11-13T21:14:46.827Z,12.1
2022-11-13T21:17:48.789Z,13.8
2022-11-13T21:20:50.749Z,12.5
2022-11-13T21:23:52.715Z,14
2022-11-13T21:26:54.676Z,13.9
2022-11-13T21:29:56.788Z,14.4
2022-11-13T21:32:58.642Z,15.1
2022-11-13T21:36:00.598Z,13.8
2022-11-13T21:39:02.560Z,14.7
2022-11-13T21:42:04.516Z,14.1
2022-11-13T21:45:06.496Z,14.2
2022-11-13T21:48:08.450Z,13.6
2022-11-13T21:51:10.409Z,14.9
2022-11-13T21:54:12.380Z,14.6
2022-11-13T21:57:14.359Z,14.4
2022-11-13T22:00:16.290Z,15
2022-11-13T22:03:18.245Z,15.5
2022-11-13T22:06:20.211Z,16.3
2022-11-13T22:09:22.157Z,15.4
2022-11-13T22:12:24.125Z,14.5
2022-11-13T22:15:26.076Z,15.3
2022-11-13T22:18:28.281Z,14.5
2022-11-13T22:21:30.050Z,15
2022-11-13T22:24:31.950Z,15.9
2022-11-13T22:27:33.905Z,15.1
2022-11-13T22:30:35.908Z,15.1
2022-11-13T22:33:37.853Z,14
2022-11-13T22:36:39.810Z,13.7
2022-11-13T22:39:41.783Z,13.6
2022-11-13T22:42:43.746Z,14.1
2022-11-13T22:45:45.697Z,13.5
2022-11-13T22:48:47.683Z,13.6
2022-11-13T22:51:49.662Z,12.1
2022-11-13T22:54:51.609Z,13
2022-11-13T22:57:53.599Z,11.8
2022-11-13T23:00:55.710Z,11.9
2022-11-13T23:03:57.570Z,10.5
2022-11-13T23:06:59.543Z,11.1
2022-11-13T23:10:01.445Z,10.7
2022-11-13T23:13:03.423Z,10.5
2022-11-13T23:16:05.380Z,9.7
2022-11-13T23:19:07.346Z,9.9
2022-11-13T23:22:09.313Z,9.7
2022-11-13T23:25:11.279Z,9.9
2022-11-13T23:28:13.260Z,9.8
2022-11-13T23:31:15.227Z,9.2
2022-11-13T23:34:27.115Z,9.6
2022-11-13T23:37:19.147Z,9.3
2022-11-13T23:40:21.104Z,9.4
2022-11-13T23:43:23.546Z,8.9
2022-11-13T23:46:25.039Z,9
2022-11-13T23:49:27.004Z,9.1
2022-11-13T23:52:28.992Z,10.1
2022-11-13T23:55:30.938Z,10.5
2022-11-13T23:58:33.235Z,10.4
